Time;durP1;ratioP1;P1;durP2;ratioP2;P2;SDS_P1;SDS_P2;PMS_P1;PMS_P2;Temp;Humidity;BMP_temperature;BMP_pressure;BME280_temperature;BME280_humidity;BME280_pressure;Samples;Min_cycle;Max_cycle;Signal;HPM_P1;HPM_P2
2022/07/23 00:01:32;;;;;;;1.50;1.40;;;26.00;85.20;;;;;;5064245;28;20514;-63
2022/07/23 00:04:03;;;;;;;1.47;1.37;;;26.10;85.90;;;;;;5063970;28;20472;-62
2022/07/23 00:06:34;;;;;;;1.07;0.80;;;26.10;85.90;;;;;;5061215;28;20463;-62
2022/07/23 00:09:05;;;;;;;0.87;0.87;;;26.10;85.60;;;;;;5062794;28;20465;-63
2022/07/23 00:11:37;;;;;;;0.83;0.83;;;26.20;85.40;;;;;;5063092;28;20539;-63
2022/07/23 00:14:08;;;;;;;0.60;0.60;;;26.10;86.00;;;;;;5066864;28;20983;-62
2022/07/23 00:16:39;;;;;;;0.70;0.60;;;26.20;85.70;;;;;;5083937;28;20563;-62
2022/07/23 00:19:10;;;;;;;0.80;0.80;;;26.10;84.70;;;;;;5073166;28;20558;-62
2022/07/23 00:21:40;;;;;;;0.80;0.57;;;26.00;85.00;;;;;;5062664;28;20501;-62
2022/07/23 00:24:11;;;;;;;0.70;0.70;;;26.00;86.00;;;;;;5065377;28;20766;-63
2022/07/23 00:26:44;;;;;;;1.00;0.50;;;26.10;84.80;;;;;;5066681;28;20464;-62
2022/07/23 00:29:14;;;;;;;0.80;0.80;;;26.10;84.60;;;;;;5062235;28;20457;-62
2022/07/23 00:31:45;;;;;;;0.60;0.60;;;26.10;85.60;;;;;;5064234;28;20453;-63
2022/07/23 00:34:19;;;;;;;1.23;1.13;;;26.10;84.60;;;;;;5061963;28;20471;-63
2022/07/23 00:36:50;;;;;;;0.53;0.53;;;26.10;84.40;;;;;;5062288;28;20461;-63
2022/07/23 00:39:21;;;;;;;0.70;0.70;;;26.00;84.60;;;;;;5063448;28;20465;-62
2022/07/23 00:41:54;;;;;;;0.60;0.60;;;25.90;85.40;;;;;;5061233;28;20475;-64
2022/07/23 00:44:27;;;;;;;0.70;0.70;;;25.90;85.80;;;;;;5062584;28;20477;-63
2022/07/23 00:46:59;;;;;;;0.70;0.70;;;25.90;84.50;;;;;;5061352;28;20502;-63
2022/07/23 00:49:31;;;;;;;0.90;0.90;;;25.60;85.00;;;;;;5055701;28;20488;-63
2022/07/23 00:52:06;;;;;;;1.10;1.00;;;25.40;86.10;;;;;;5071357;28;20458;-62
2022/07/23 00:54:37;;;;;;;1.40;1.00;;;25.40;87.40;;;;;;5065738;28;20465;-63
2022/07/23 00:57:10;;;;;;;0.90;0.90;;;25.30;87.10;;;;;;5060681;28;20493;-63
2022/07/23 00:59:41;;;;;;;1.33;1.23;;;25.40;88.00;;;;;;5058093;28;20533;-64
2022/07/23 01:02:12;;;;;;;1.23;1.17;;;25.40;88.30;;;;;;5063403;28;20497;-64
2022/07/23 01:04:43;;;;;;;2.27;1.30;;;25.50;89.10;;;;;;5070205;28;20483;-64
2022/07/23 01:07:13;;;;;;;1.90;1.80;;;25.40;89.80;;;;;;5059403;28;20480;-64
2022/07/23 01:09:45;;;;;;;1.80;1.70;;;25.40;89.20;;;;;;5066848;28;20451;-63
2022/07/23 01:12:17;;;;;;;1.73;1.40;;;25.30;90.10;;;;;;5053344;28;20472;-64
2022/07/23 01:14:54;;;;;;;1.23;1.13;;;25.20;90.00;;;;;;5062863;28;20478;-62
2022/07/23 01:17:25;;;;;;;1.07;0.97;;;25.10;90.40;;;;;;5060210;28;20461;-63
2022/07/23 01:19:56;;;;;;;0.80;0.80;;;25.20;90.30;;;;;;5068577;28;20452;-63
2022/07/23 01:22:32;;;;;;;0.93;0.93;;;25.20;90.60;;;;;;5065300;28;20484;-63
2022/07/23 01:25:03;;;;;;;1.37;1.27;;;25.10;90.90;;;;;;5061147;28;20552;-63
2022/07/23 01:27:34;;;;;;;1.10;0.80;;;25.30;91.00;;;;;;5065570;28;20462;-63
2022/07/23 01:30:05;;;;;;;1.10;1.10;;;25.30;91.10;;;;;;5072515;28;20455;-63
2022/07/23 01:32:36;;;;;;;1.17;1.10;;;25.30;90.90;;;;;;5058849;28;20473;-63
2022/07/23 01:35:08;;;;;;;1.00;1.00;;;25.20;91.10;;;;;;5061276;28;20475;-61
2022/07/23 01:37:42;;;;;;;1.43;1.33;;;25.10;91.50;;;;;;5061284;28;20461;-64
2022/07/23 01:40:13;;;;;;;1.13;1.03;;;25.10;91.20;;;;;;5075163;28;20464;-64
2022/07/23 01:42:44;;;;;;;1.10;1.10;;;25.00;91.10;;;;;;5073041;28;20499;-63
2022/07/23 01:45:15;;;;;;;1.00;1.00;;;24.90;91.60;;;;;;5059197;28;20467;-62
2022/07/23 01:47:45;;;;;;;1.23;1.13;;;24.70;91.60;;;;;;5065389;28;20469;-62
2022/07/23 01:50:17;;;;;;;1.40;1.30;;;24.60;91.90;;;;;;5066850;28;20471;-62
2022/07/23 01:52:50;;;;;;;1.40;1.13;;;24.60;92.30;;;;;;5067060;28;20479;-63
2022/07/23 01:55:20;;;;;;;1.90;1.23;;;24.50;91.60;;;;;;5069569;28;20480;-63
2022/07/23 01:57:51;;;;;;;1.30;1.20;;;24.40;91.80;;;;;;5065069;28;20460;-64
2022/07/23 02:00:22;;;;;;;1.40;1.30;;;24.40;92.20;;;;;;5068172;28;20456;-62
2022/07/23 02:02:53;;;;;;;1.17;1.07;;;24.30;92.20;;;;;;5074051;28;20489;-62
2022/07/23 02:05:23;;;;;;;1.37;1.27;;;24.30;92.20;;;;;;5068281;28;20464;-62
2022/07/23 02:07:56;;;;;;;1.50;1.40;;;24.40;92.30;;;;;;5048587;28;20492;-63
2022/07/23 02:10:27;;;;;;;1.20;1.20;;;24.40;92.20;;;;;;5068212;28;20476;-62
2022/07/23 02:12:58;;;;;;;0.90;0.90;;;24.20;92.30;;;;;;5066412;28;20524;-62
2022/07/23 02:15:29;;;;;;;1.07;1.07;;;24.10;92.40;;;;;;5060655;28;20464;-62
2022/07/23 02:18:00;;;;;;;1.00;1.00;;;24.00;92.50;;;;;;5055191;28;20551;-62
2022/07/23 02:20:31;;;;;;;1.50;1.30;;;23.90;92.70;;;;;;5065444;28;20572;-62
2022/07/23 02:23:03;;;;;;;1.83;1.73;;;23.80;93.10;;;;;;5064578;28;20492;-62
2022/07/23 02:25:34;;;;;;;0.87;0.87;;;23.50;93.50;;;;;;5065375;28;21726;-62
2022/07/23 02:28:05;;;;;;;1.00;1.00;;;23.50;93.90;;;;;;5064765;28;20456;-62
2022/07/23 02:30:37;;;;;;;1.40;1.30;;;23.50;94.10;;;;;;5079528;28;20470;-62
2022/07/23 02:33:08;;;;;;;1.10;1.10;;;23.60;94.00;;;;;;5070002;28;20464;-62
2022/07/23 02:35:39;;;;;;;1.50;1.40;;;23.50;93.80;;;;;;5063049;28;20464;-64
2022/07/23 02:38:11;;;;;;;1.07;1.00;;;23.40;94.10;;;;;;5066709;28;20464;-65
2022/07/23 02:40:42;;;;;;;1.43;1.33;;;23.30;94.40;;;;;;5072217;28;20475;-65
2022/07/23 02:43:13;;;;;;;1.07;1.00;;;23.30;94.80;;;;;;5075233;28;20471;-64
2022/07/23 02:45:44;;;;;;;1.53;1.43;;;23.30;94.90;;;;;;5076151;28;20822;-63
2022/07/23 02:48:14;;;;;;;1.47;1.30;;;23.10;95.40;;;;;;5066695;28;20470;-64
2022/07/23 02:50:45;;;;;;;1.57;1.47;;;23.10;96.00;;;;;;5065951;28;20464;-64
2022/07/23 02:53:17;;;;;;;1.40;1.30;;;23.10;95.80;;;;;;5066653;28;20524;-64
2022/07/23 02:55:48;;;;;;;1.57;1.47;;;22.90;96.30;;;;;;5063139;28;20572;-65
2022/07/23 02:58:19;;;;;;;1.30;1.20;;;22.90;96.40;;;;;;5064784;28;20454;-63
2022/07/23 03:00:50;;;;;;;1.33;1.13;;;22.80;97.00;;;;;;5063992;28;20464;-63
2022/07/23 03:03:21;;;;;;;1.20;1.10;;;22.70;97.30;;;;;;5064440;28;20491;-63
2022/07/23 03:05:58;;;;;;;1.60;1.50;;;22.60;97.50;;;;;;5062772;28;21293;-66
2022/07/23 03:08:30;;;;;;;1.20;1.10;;;22.60;98.00;;;;;;5064582;28;20464;-65
2022/07/23 03:11:01;;;;;;;1.80;1.70;;;22.50;98.60;;;;;;5058892;28;20460;-63
2022/07/23 03:13:32;;;;;;;1.37;1.27;;;22.40;98.80;;;;;;5070873;28;20629;-64
2022/07/23 03:16:04;;;;;;;1.20;1.10;;;22.30;99.00;;;;;;5063211;28;20830;-64
2022/07/23 03:18:36;;;;;;;1.40;1.30;;;22.30;99.30;;;;;;5076970;28;20454;-63
2022/07/23 03:21:10;;;;;;;1.53;1.43;;;22.30;99.30;;;;;;5071088;28;20502;-64
2022/07/23 03:23:42;;;;;;;1.50;1.40;;;22.20;99.60;;;;;;5064369;28;20494;-64
2022/07/23 03:26:13;;;;;;;1.50;1.40;;;22.10;99.80;;;;;;5066309;28;20440;-64
2022/07/23 03:28:44;;;;;;;1.20;1.10;;;21.90;99.90;;;;;;5066786;28;20464;-63
2022/07/23 03:31:15;;;;;;;1.93;1.80;;;21.80;99.90;;;;;;5064770;28;20511;-63
2022/07/23 03:33:45;;;;;;;1.77;1.67;;;21.70;99.90;;;;;;5063933;28;20460;-64
2022/07/23 03:36:16;;;;;;;2.23;1.80;;;21.70;99.90;;;;;;5060214;28;20792;-64
2022/07/23 03:38:52;;;;;;;1.83;1.33;;;21.60;99.90;;;;;;5062589;28;20543;-63
2022/07/23 03:41:23;;;;;;;1.80;1.70;;;21.50;99.90;;;;;;5067772;28;20456;-64
2022/07/23 03:43:53;;;;;;;2.57;2.37;;;21.50;99.90;;;;;;5063692;28;20458;-64
2022/07/23 03:46:24;;;;;;;1.80;1.70;;;21.40;99.90;;;;;;5060288;28;20467;-65
2022/07/23 03:48:55;;;;;;;1.50;1.40;;;21.30;99.90;;;;;;5063546;28;20843;-64
2022/07/23 03:51:28;;;;;;;1.53;1.43;;;21.20;99.90;;;;;;5069898;28;20463;-63
2022/07/23 03:54:00;;;;;;;1.40;1.30;;;21.10;99.90;;;;;;5063380;28;20486;-64
2022/07/23 03:56:31;;;;;;;1.80;1.60;;;21.10;99.90;;;;;;5054515;28;20981;-64
2022/07/23 03:59:02;;;;;;;1.70;1.43;;;21.00;99.90;;;;;;5069752;28;21069;-63
2022/07/23 04:01:34;;;;;;;1.40;1.30;;;21.00;99.90;;;;;;5061756;28;20524;-62
2022/07/23 04:04:05;;;;;;;1.57;1.47;;;20.90;99.90;;;;;;5064223;28;20816;-63
2022/07/23 04:06:36;;;;;;;1.73;1.30;;;20.80;99.90;;;;;;5058366;28;20823;-63
2022/07/23 04:09:08;;;;;;;3.73;1.60;;;20.70;99.90;;;;;;5061648;28;20462;-64
2022/07/23 04:11:40;;;;;;;4.33;3.20;;;20.60;99.90;;;;;;5063993;28;20507;-64
2022/07/23 04:14:11;;;;;;;3.20;2.90;;;20.60;99.90;;;;;;5063721;28;20476;-64
2022/07/23 04:16:42;;;;;;;1.40;1.30;;;20.50;99.90;;;;;;5064118;28;20465;-64
2022/07/23 04:19:12;;;;;;;1.83;1.70;;;20.50;99.90;;;;;;5065404;28;20474;-64
2022/07/23 04:21:43;;;;;;;2.53;2.33;;;20.40;99.90;;;;;;5061192;28;20439;-63
2022/07/23 04:24:15;;;;;;;1.50;1.40;;;20.40;99.90;;;;;;5068135;28;20500;-65
2022/07/23 04:26:46;;;;;;;1.70;1.60;;;20.20;99.90;;;;;;5072769;28;20442;-62
2022/07/23 04:29:17;;;;;;;1.93;1.50;;;20.20;99.90;;;;;;5083726;28;20445;-63
2022/07/23 04:31:48;;;;;;;1.80;1.50;;;20.00;99.90;;;;;;5066957;28;20452;-63
2022/07/23 04:34:19;;;;;;;2.47;2.27;;;20.00;99.90;;;;;;5070574;28;20467;-62
2022/07/23 04:36:49;;;;;;;2.17;2.07;;;20.00;99.90;;;;;;5075825;28;20426;-62
2022/07/23 04:39:22;;;;;;;2.70;2.33;;;19.90;99.90;;;;;;5072977;28;20464;-63
2022/07/23 04:41:53;;;;;;;2.53;2.30;;;19.80;99.90;;;;;;5068646;28;20786;-62
2022/07/23 04:44:23;;;;;;;1.23;1.13;;;19.80;99.90;;;;;;5059073;28;20829;-62
2022/07/23 04:46:54;;;;;;;1.43;1.30;;;19.80;99.90;;;;;;5058984;28;20467;-61
2022/07/23 04:49:26;;;;;;;1.30;1.20;;;19.70;99.90;;;;;;5062733;28;20475;-61
2022/07/23 04:51:57;;;;;;;1.80;1.70;;;19.60;99.90;;;;;;5061749;28;20458;-61
2022/07/23 04:54:30;;;;;;;1.30;1.10;;;19.60;99.90;;;;;;5065324;28;20457;-62
2022/07/23 04:57:00;;;;;;;1.47;1.37;;;19.60;99.90;;;;;;5071403;28;20473;-61
2022/07/23 04:59:31;;;;;;;1.40;1.30;;;19.50;99.90;;;;;;5061143;28;20469;-61
2022/07/23 05:02:02;;;;;;;1.40;1.30;;;19.40;99.90;;;;;;5069949;28;20441;-61
2022/07/23 05:04:33;;;;;;;1.57;1.47;;;19.30;99.90;;;;;;5059888;28;21253;-62
2022/07/23 05:07:04;;;;;;;1.60;1.50;;;19.30;99.90;;;;;;5057222;28;20517;-62
2022/07/23 05:09:38;;;;;;;1.40;1.30;;;19.20;99.90;;;;;;5062711;28;20445;-62
2022/07/23 05:12:09;;;;;;;1.50;1.40;;;19.10;99.90;;;;;;5064716;28;20515;-62
2022/07/23 05:14:40;;;;;;;1.70;1.60;;;19.10;99.90;;;;;;5067509;28;20563;-61
2022/07/23 05:17:11;;;;;;;1.20;1.10;;;19.00;99.90;;;;;;5063597;28;20834;-62
2022/07/23 05:19:41;;;;;;;1.57;1.47;;;18.90;99.90;;;;;;5062585;28;20456;-62
2022/07/23 05:22:12;;;;;;;1.40;1.30;;;18.80;99.90;;;;;;5065855;28;21579;-62
2022/07/23 05:24:44;;;;;;;1.40;1.30;;;18.70;99.90;;;;;;5065733;28;20480;-62
2022/07/23 05:27:15;;;;;;;1.43;1.30;;;18.70;99.90;;;;;;5056520;28;20912;-62
2022/07/23 05:29:46;;;;;;;1.17;1.10;;;18.70;99.90;;;;;;5062318;28;20431;-61
2022/07/23 05:32:17;;;;;;;1.67;1.17;;;18.60;99.90;;;;;;5066418;28;20456;-62
2022/07/23 05:34:48;;;;;;;1.00;0.90;;;18.50;99.90;;;;;;5066326;28;20482;-61
2022/07/23 05:37:20;;;;;;;1.43;1.33;;;18.40;99.90;;;;;;5066796;28;20437;-62
2022/07/23 05:39:52;;;;;;;1.30;1.20;;;18.30;99.90;;;;;;5076065;28;20434;-62
2022/07/23 05:42:24;;;;;;;2.00;1.70;;;18.30;99.90;;;;;;5062241;28;20435;-62
2022/07/23 05:44:54;;;;;;;2.50;1.90;;;18.20;99.90;;;;;;5064472;28;20459;-62
2022/07/23 05:47:25;;;;;;;1.97;1.10;;;18.20;99.90;;;;;;5059639;28;20555;-61
2022/07/23 05:49:56;;;;;;;1.47;1.37;;;18.10;99.90;;;;;;5063002;28;20457;-62
2022/07/23 05:52:32;;;;;;;1.60;1.37;;;18.10;99.90;;;;;;5064814;28;20451;-62
2022/07/23 05:55:05;;;;;;;1.43;1.30;;;18.00;99.90;;;;;;5066155;28;21017;-62
2022/07/23 05:57:37;;;;;;;2.50;1.00;;;18.00;99.90;;;;;;5064699;28;20448;-62
2022/07/23 06:00:10;;;;;;;1.30;1.20;;;17.90;99.90;;;;;;5074252;28;20441;-62
2022/07/23 06:02:41;;;;;;;1.23;1.13;;;17.80;99.90;;;;;;5065976;28;20439;-62
2022/07/23 06:05:12;;;;;;;1.17;0.90;;;17.80;99.90;;;;;;5066187;28;20586;-62
2022/07/23 06:07:43;;;;;;;1.27;1.17;;;17.70;99.90;;;;;;5059099;28;20921;-64
2022/07/23 06:10:15;;;;;;;1.30;1.20;;;17.60;99.90;;;;;;5058917;28;20453;-62
2022/07/23 06:12:46;;;;;;;1.20;1.10;;;17.50;99.90;;;;;;5064717;28;20456;-62
2022/07/23 06:15:17;;;;;;;1.20;1.10;;;17.50;99.90;;;;;;5060075;28;20464;-63
2022/07/23 06:17:48;;;;;;;2.70;1.30;;;17.50;99.90;;;;;;5070892;28;20751;-63
2022/07/23 06:20:18;;;;;;;1.53;1.43;;;17.50;99.90;;;;;;5066294;28;20459;-62
2022/07/23 06:22:49;;;;;;;1.20;1.10;;;17.40;99.90;;;;;;5077909;28;20421;-62
2022/07/23 06:25:22;;;;;;;2.60;1.10;;;17.30;99.90;;;;;;5059145;28;20475;-63
2022/07/23 06:27:52;;;;;;;1.27;1.17;;;17.40;99.90;;;;;;5069700;28;20463;-62
2022/07/23 06:30:23;;;;;;;1.70;1.30;;;17.40;99.90;;;;;;5052667;28;20464;-63
2022/07/23 06:32:54;;;;;;;1.07;0.97;;;17.30;99.90;;;;;;5065385;28;20439;-63
2022/07/23 06:35:25;;;;;;;1.40;1.30;;;17.20;99.90;;;;;;5072676;28;20467;-63
2022/07/23 06:37:56;;;;;;;1.87;1.40;;;17.20;99.90;;;;;;5073419;28;20462;-63
2022/07/23 06:40:29;;;;;;;1.43;1.30;;;17.20;99.90;;;;;;5073232;28;20438;-63
2022/07/23 06:42:59;;;;;;;2.50;1.13;;;17.20;99.90;;;;;;5057353;28;20468;-63
2022/07/23 06:45:30;;;;;;;1.40;1.30;;;17.10;99.90;;;;;;5070395;28;20500;-63
2022/07/23 06:48:02;;;;;;;1.50;1.30;;;17.10;99.90;;;;;;5081957;28;20467;-63
2022/07/23 06:50:33;;;;;;;1.37;1.27;;;17.10;99.90;;;;;;5055701;28;20431;-64
2022/07/23 06:53:03;;;;;;;1.93;1.43;;;17.10;99.90;;;;;;5055238;28;21098;-63
2022/07/23 06:55:38;;;;;;;1.47;1.13;;;17.10;99.90;;;;;;5069476;28;20457;-63
2022/07/23 06:58:09;;;;;;;1.30;1.20;;;17.00;99.90;;;;;;5076425;28;20483;-63
2022/07/23 07:00:40;;;;;;;1.10;1.00;;;17.00;99.90;;;;;;5068481;28;20586;-63
2022/07/23 07:03:11;;;;;;;3.27;1.33;;;16.90;99.90;;;;;;5061678;28;20453;-63
2022/07/23 07:05:42;;;;;;;1.60;1.33;;;16.80;99.90;;;;;;5064395;28;20508;-63
2022/07/23 07:08:12;;;;;;;1.60;1.40;;;16.80;99.90;;;;;;5058925;28;20436;-63
2022/07/23 07:10:45;;;;;;;1.30;1.20;;;16.80;99.90;;;;;;5076638;28;20469;-63
2022/07/23 07:13:16;;;;;;;1.50;1.23;;;16.70;99.90;;;;;;5063048;28;20497;-63
2022/07/23 07:15:46;;;;;;;1.80;1.17;;;16.70;99.90;;;;;;5067445;28;20464;-63
2022/07/23 07:18:17;;;;;;;1.17;1.00;;;16.70;99.90;;;;;;5064991;28;20467;-63
2022/07/23 07:20:48;;;;;;;1.10;1.00;;;16.70;99.90;;;;;;5074015;28;20505;-63
2022/07/23 07:23:20;;;;;;;1.17;1.07;;;16.70;99.90;;;;;;5075696;28;20459;-63
2022/07/23 07:25:52;;;;;;;1.70;1.00;;;16.70;99.90;;;;;;5075237;28;20503;-63
2022/07/23 07:28:23;;;;;;;1.60;1.30;;;16.70;99.90;;;;;;5075020;28;20464;-62
2022/07/23 07:30:54;;;;;;;1.30;1.20;;;16.60;99.90;;;;;;5062891;28;20473;-62
2022/07/23 07:33:25;;;;;;;0.93;0.93;;;16.50;99.90;;;;;;5064563;28;20559;-62
2022/07/23 07:35:56;;;;;;;2.43;1.60;;;16.60;99.90;;;;;;5067608;28;20490;-62
2022/07/23 07:38:26;;;;;;;2.33;1.33;;;16.50;99.90;;;;;;5079396;28;20452;-62
2022/07/23 07:40:59;;;;;;;1.33;1.23;;;16.50;99.90;;;;;;5072634;28;20434;-62
2022/07/23 07:43:29;;;;;;;1.00;0.90;;;16.40;99.90;;;;;;5064891;28;20930;-62
2022/07/23 07:46:00;;;;;;;1.60;1.13;;;16.40;99.90;;;;;;5067982;28;20508;-62
2022/07/23 07:48:31;;;;;;;0.93;0.90;;;16.50;99.90;;;;;;5070977;28;20871;-63
2022/07/23 07:51:02;;;;;;;1.60;1.50;;;16.40;99.90;;;;;;5071427;28;20466;-62
2022/07/23 07:53:33;;;;;;;1.20;1.10;;;16.40;99.90;;;;;;5059156;28;20452;-62
2022/07/23 07:56:06;;;;;;;1.37;1.27;;;16.40;99.90;;;;;;5064378;28;20497;-62
2022/07/23 07:58:37;;;;;;;1.00;0.90;;;16.30;99.90;;;;;;5063700;28;20457;-62
2022/07/23 08:01:08;;;;;;;1.30;1.20;;;16.40;99.90;;;;;;5066762;28;20486;-62
2022/07/23 08:03:38;;;;;;;1.17;1.07;;;16.30;99.90;;;;;;5064990;28;20469;-62
2022/07/23 08:06:09;;;;;;;1.17;0.97;;;16.30;99.90;;;;;;5077324;28;20480;-63
2022/07/23 08:08:40;;;;;;;1.77;1.60;;;16.30;99.90;;;;;;5076123;28;20464;-63
2022/07/23 08:11:13;;;;;;;2.60;2.00;;;16.30;99.90;;;;;;5063052;28;20468;-63
2022/07/23 08:13:44;;;;;;;1.90;1.80;;;16.30;99.90;;;;;;5062976;28;20464;-63
2022/07/23 08:16:15;;;;;;;5.60;2.80;;;16.30;99.90;;;;;;5066385;28;20480;-63
2022/07/23 08:18:45;;;;;;;6.53;3.40;;;16.20;99.90;;;;;;5062950;28;20458;-63
2022/07/23 08:21:17;;;;;;;3.50;3.20;;;16.20;99.90;;;;;;5062693;28;20826;-63
2022/07/23 08:23:47;;;;;;;3.97;3.43;;;16.20;99.90;;;;;;5064057;28;20484;-62
2022/07/23 08:26:20;;;;;;;3.60;3.30;;;16.20;99.90;;;;;;5063731;28;20484;-62
2022/07/23 08:28:51;;;;;;;3.23;2.93;;;16.20;99.90;;;;;;5062443;28;20446;-62
2022/07/23 08:31:21;;;;;;;3.10;2.60;;;16.20;99.90;;;;;;5062074;28;20476;-62
2022/07/23 08:33:54;;;;;;;3.90;2.47;;;16.20;99.90;;;;;;5069374;28;20448;-62
2022/07/23 08:36:27;;;;;;;3.00;2.43;;;16.20;99.90;;;;;;5074959;28;20441;-63
2022/07/23 08:38:57;;;;;;;2.17;1.87;;;16.20;99.90;;;;;;5071663;28;20491;-62
2022/07/23 08:41:30;;;;;;;1.77;1.67;;;16.30;99.90;;;;;;5073367;28;20454;-62
2022/07/23 08:44:02;;;;;;;2.00;1.80;;;16.20;99.90;;;;;;5065017;28;20464;-63
2022/07/23 08:46:34;;;;;;;1.33;1.23;;;16.20;99.90;;;;;;5072631;28;20491;-62
2022/07/23 08:49:13;;;;;;;1.70;1.40;;;16.30;99.90;;;;;;5071099;28;20527;-62
2022/07/23 08:51:45;;;;;;;2.00;1.00;;;16.40;99.90;;;;;;5065483;28;20441;-62
2022/07/23 08:54:16;;;;;;;2.60;1.40;;;16.50;99.90;;;;;;5065373;28;20527;-62
2022/07/23 08:56:48;;;;;;;1.30;1.20;;;16.50;99.90;;;;;;5070271;28;20494;-62
2022/07/23 08:59:19;;;;;;;1.60;1.50;;;16.50;99.90;;;;;;5079114;28;20481;-62
2022/07/23 09:01:50;;;;;;;1.37;1.27;;;16.60;99.90;;;;;;5063710;28;20942;-62
2022/07/23 09:04:21;;;;;;;1.30;1.20;;;16.70;99.90;;;;;;5061901;28;20470;-63
2022/07/23 09:06:56;;;;;;;2.33;2.00;;;16.70;99.90;;;;;;5066510;28;20982;-62
2022/07/23 09:09:29;;;;;;;1.27;1.17;;;16.80;99.90;;;;;;5061745;28;20447;-62
2022/07/23 09:12:09;;;;;;;1.70;1.20;;;16.70;99.90;;;;;;5062271;28;20464;-62
2022/07/23 09:14:41;;;;;;;1.63;1.53;;;16.80;99.90;;;;;;5063046;28;20434;-62
2022/07/23 09:17:13;;;;;;;1.20;1.17;;;16.70;99.90;;;;;;5063960;28;20544;-62
2022/07/23 09:19:46;;;;;;;1.30;1.20;;;16.70;99.90;;;;;;5055945;28;20555;-62
2022/07/23 09:22:21;;;;;;;2.73;1.20;;;16.80;99.90;;;;;;5076408;28;20460;-62
2022/07/23 09:25:12;;;;;;;0.97;0.97;;;16.80;99.90;;;;;;5066251;28;20448;-62
2022/07/23 09:27:53;;;;;;;1.47;1.20;;;16.90;99.90;;;;;;5071126;28;20492;-62
2022/07/23 09:30:27;;;;;;;1.87;1.10;;;16.90;99.90;;;;;;5069470;28;20447;-63
2022/07/23 09:33:12;;;;;;;1.33;1.10;;;16.90;99.90;;;;;;5062027;28;20651;-63
2022/07/23 09:35:53;;;;;;;1.80;1.10;;;16.90;99.90;;;;;;5060712;28;20511;-63
2022/07/23 09:38:27;;;;;;;1.43;1.33;;;16.90;99.90;;;;;;5068465;28;20470;-63
2022/07/23 09:41:10;;;;;;;1.43;1.33;;;16.90;99.90;;;;;;5068038;28;20459;-63
2022/07/23 09:43:42;;;;;;;1.60;1.50;;;16.90;99.90;;;;;;5055727;28;20455;-62
2022/07/23 09:46:24;;;;;;;1.43;1.03;;;16.80;99.90;;;;;;5059878;28;20470;-62
2022/07/23 09:48:56;;;;;;;1.40;1.20;;;16.70;99.90;;;;;;5066994;28;20555;-63
2022/07/23 09:51:31;;;;;;;1.10;1.00;;;16.70;99.90;;;;;;5070751;28;20562;-62
2022/07/23 09:54:02;;;;;;;1.40;1.10;;;16.70;99.90;;;;;;5062177;28;20470;-62
2022/07/23 09:56:35;;;;;;;1.43;1.33;;;16.70;99.90;;;;;;5067441;28;20457;-62
2022/07/23 09:59:08;;;;;;;2.00;1.20;;;16.70;99.90;;;;;;5064263;28;20522;-62
2022/07/23 10:01:39;;;;;;;1.77;1.17;;;16.60;99.90;;;;;;5053968;28;20544;-62
2022/07/23 10:04:11;;;;;;;1.70;1.30;;;16.60;99.90;;;;;;5066715;28;20752;-62
2022/07/23 10:06:45;;;;;;;1.37;1.27;;;16.70;99.90;;;;;;5063319;28;20828;-61
2022/07/23 10:09:20;;;;;;;1.30;1.20;;;16.70;99.90;;;;;;5061646;28;20463;-62
2022/07/23 10:11:52;;;;;;;1.17;1.03;;;16.60;99.90;;;;;;5056116;28;20445;-62
2022/07/23 10:14:23;;;;;;;1.83;1.27;;;16.50;99.90;;;;;;5060706;28;20435;-62
2022/07/23 10:16:54;;;;;;;1.07;1.07;;;16.60;99.90;;;;;;5063977;28;20464;-63
2022/07/23 10:19:26;;;;;;;1.10;1.00;;;16.60;99.90;;;;;;5060514;28;20469;-62
2022/07/23 10:22:01;;;;;;;1.50;1.40;;;16.60;99.90;;;;;;5060125;28;20582;-63
2022/07/23 10:24:49;;;;;;;1.30;1.00;;;16.60;99.90;;;;;;5065352;28;20904;-62
2022/07/23 10:27:45;;;;;;;1.20;1.10;;;16.50;99.90;;;;;;5062430;28;20506;-62
2022/07/23 10:30:27;;;;;;;1.60;1.50;;;16.60;99.90;;;;;;5062858;28;20582;-62
2022/07/23 10:33:16;;;;;;;1.73;1.37;;;16.60;99.90;;;;;;5062108;28;20456;-63
2022/07/23 10:35:52;;;;;;;1.20;1.10;;;16.60;99.90;;;;;;5059292;28;20514;-62
2022/07/23 10:38:29;;;;;;;1.57;1.23;;;16.50;99.90;;;;;;5064289;28;20456;-63
2022/07/23 10:41:01;;;;;;;1.20;1.10;;;16.40;99.90;;;;;;5065259;28;20470;-64
2022/07/23 10:43:33;;;;;;;1.20;1.10;;;16.40;99.90;;;;;;5064741;28;20464;-62
2022/07/23 10:46:32;;;;;;;3.33;1.40;;;16.40;99.90;;;;;;5067741;28;20475;-62
2022/07/23 10:49:27;;;;;;;1.73;1.20;;;16.40;99.90;;;;;;5058226;28;20495;-62
2022/07/23 10:52:18;;;;;;;1.03;1.03;;;16.40;99.90;;;;;;5068661;28;20459;-63
2022/07/23 10:54:51;;;;;;;1.10;1.00;;;16.40;99.90;;;;;;5064809;28;20435;-64
2022/07/23 10:57:23;;;;;;;1.10;1.00;;;16.40;99.90;;;;;;5061941;28;20471;-63
2022/07/23 11:00:22;;;;;;;1.23;1.10;;;16.40;99.90;;;;;;5063448;28;20485;-63
2022/07/23 11:02:55;;;;;;;1.50;1.33;;;16.40;99.90;;;;;;5059894;28;20543;-63
2022/07/23 11:05:28;;;;;;;2.13;1.03;;;16.40;99.90;;;;;;5060421;28;20468;-62
2022/07/23 11:08:21;;;;;;;1.30;1.10;;;16.40;99.90;;;;;;5059120;28;20493;-63
2022/07/23 11:10:54;;;;;;;2.13;1.63;;;16.30;99.90;;;;;;5063172;28;20462;-63
2022/07/23 11:13:41;;;;;;;1.47;0.90;;;16.30;99.90;;;;;;5062859;28;20443;-63
2022/07/23 11:16:29;;;;;;;0.67;0.50;;;16.30;99.90;;;;;;5064103;28;20492;-63
2022/07/23 11:19:11;;;;;;;1.33;0.70;;;16.30;99.90;;;;;;5064531;28;20938;-63
2022/07/23 11:21:59;;;;;;;0.80;0.80;;;16.30;99.90;;;;;;5065150;28;20475;-63
2022/07/23 11:24:30;;;;;;;1.00;0.80;;;16.30;99.90;;;;;;5064096;28;20456;-63
2022/07/23 11:27:03;;;;;;;1.30;1.20;;;16.30;99.90;;;;;;5072452;28;20451;-62
2022/07/23 11:29:48;;;;;;;0.80;0.80;;;16.20;99.90;;;;;;5062959;28;20880;-63
2022/07/23 11:32:32;;;;;;;1.30;1.00;;;16.20;99.90;;;;;;5067530;28;20460;-63
2022/07/23 11:35:19;;;;;;;0.90;0.87;;;16.30;99.90;;;;;;5063211;28;20468;-62
2022/07/23 11:37:53;;;;;;;1.17;1.07;;;16.20;99.90;;;;;;5061137;28;20472;-61
2022/07/23 11:40:24;;;;;;;1.17;1.07;;;16.10;99.90;;;;;;5064445;28;20466;-63
2022/07/23 11:42:58;;;;;;;1.50;1.30;;;16.10;99.90;;;;;;5057127;28;20463;-63
2022/07/23 11:45:34;;;;;;;0.80;0.80;;;16.10;99.90;;;;;;5064194;28;20526;-62
2022/07/23 11:48:05;;;;;;;1.27;1.17;;;16.00;99.90;;;;;;5064611;28;20460;-63
2022/07/23 11:50:38;;;;;;;1.33;1.23;;;16.00;99.90;;;;;;5063205;28;20562;-63
2022/07/23 11:53:09;;;;;;;1.10;1.00;;;16.00;99.90;;;;;;5068671;28;20464;-63
2022/07/23 11:55:40;;;;;;;1.23;1.13;;;16.10;99.90;;;;;;5061927;28;20502;-63
2022/07/23 11:58:11;;;;;;;1.07;1.00;;;16.10;99.90;;;;;;5073951;28;20557;-62
2022/07/23 12:00:43;;;;;;;0.97;0.87;;;16.20;99.90;;;;;;5068308;28;20471;-63
2022/07/23 12:03:14;;;;;;;0.87;0.80;;;16.10;99.90;;;;;;5063698;28;20464;-63
2022/07/23 12:05:47;;;;;;;0.97;0.97;;;16.00;99.90;;;;;;5063065;28;20447;-63
2022/07/23 12:08:17;;;;;;;1.57;1.00;;;16.10;99.90;;;;;;5071785;28;20491;-62
2022/07/23 12:10:48;;;;;;;1.50;1.30;;;16.10;99.90;;;;;;5064166;28;20590;-63
2022/07/23 12:13:23;;;;;;;1.90;0.97;;;16.10;99.90;;;;;;5052455;28;20994;-63
2022/07/23 12:15:58;;;;;;;1.57;1.47;;;16.10;99.90;;;;;;5063398;28;20460;-62
2022/07/23 12:18:30;;;;;;;2.67;1.47;;;16.10;99.90;;;;;;5066567;28;20521;-62
2022/07/23 12:21:06;;;;;;;1.47;1.37;;;16.00;99.90;;;;;;5064007;28;20467;-62
2022/07/23 12:23:38;;;;;;;1.50;1.23;;;16.00;99.90;;;;;;5062333;28;20718;-62
2022/07/23 12:26:11;;;;;;;1.30;1.20;;;15.90;99.90;;;;;;5062033;28;20475;-62
2022/07/23 12:28:43;;;;;;;1.67;1.57;;;15.90;99.90;;;;;;5063585;28;20594;-62
2022/07/23 12:31:15;;;;;;;1.37;1.27;;;16.00;99.90;;;;;;5066331;28;20464;-62
2022/07/23 12:33:47;;;;;;;1.30;1.23;;;15.90;99.90;;;;;;5069612;28;20460;-62
2022/07/23 12:36:20;;;;;;;1.40;1.30;;;15.90;99.90;;;;;;5062322;28;20464;-62
2022/07/23 12:38:51;;;;;;;1.30;1.07;;;15.80;99.90;;;;;;5067527;28;20499;-62
2022/07/23 12:41:22;;;;;;;1.60;1.43;;;15.80;99.90;;;;;;5063813;28;20479;-62
2022/07/23 12:43:53;;;;;;;1.27;1.17;;;15.80;99.90;;;;;;5067135;28;20468;-62
2022/07/23 12:46:24;;;;;;;1.23;1.13;;;15.80;99.90;;;;;;5062156;28;20516;-61
2022/07/23 12:48:56;;;;;;;1.50;1.40;;;15.80;99.90;;;;;;5067164;28;20503;-61
2022/07/23 12:51:31;;;;;;;1.13;1.10;;;15.80;99.90;;;;;;5062121;28;20460;-61
2022/07/23 12:54:08;;;;;;;1.33;1.20;;;15.80;99.90;;;;;;5076597;28;20577;-62
2022/07/23 12:56:41;;;;;;;1.17;1.17;;;15.70;99.90;;;;;;5062397;28;20576;-62
2022/07/23 12:59:33;;;;;;;1.23;1.13;;;15.70;99.90;;;;;;5061272;28;20550;-62
2022/07/23 13:02:05;;;;;;;1.37;1.37;;;15.70;99.90;;;;;;5070260;28;20464;-62
2022/07/23 13:04:35;;;;;;;1.40;1.30;;;15.80;99.90;;;;;;5071454;28;20456;-62
2022/07/23 13:07:08;;;;;;;1.97;1.20;;;15.80;99.90;;;;;;5065341;28;20509;-61
2022/07/23 13:09:39;;;;;;;2.03;1.30;;;15.80;99.90;;;;;;5061090;28;20514;-62
2022/07/23 13:12:30;;;;;;;1.57;1.47;;;15.90;99.90;;;;;;5059987;28;20452;-62
2022/07/23 13:15:01;;;;;;;1.30;1.20;;;15.90;99.90;;;;;;5061412;28;20464;-62
2022/07/23 13:17:32;;;;;;;1.80;1.70;;;15.90;99.90;;;;;;5062890;28;20464;-62